Lian Xian, China
Current Conditions -  °F | °C
As of 7:00 AM on Friday 28 Nov 2014 (Local Time) from ZGGG Reporting Station
Haze Haze  
Wind Chill: 72°   Ceiling: 2100
Heat Index: 72°   Visibility: 2.5mi
Dew Point: 68°   Wind: 0mph
Humidity: 88%   Direction: NA
Pressure: 29.97"   Gusts: NA
Location:  24.78°N, 112.38°E
Report Text: ZGGG 272300Z 00000MPS 4000 BR BKN021 22/20 Q1015 NOSIG
Loading
Personal Weather Stations






























Interactive Weather Map New forecast layout! Learn more

10-Day Weather Forecast

Advertisements
Track Severe Weather on mobile